Date,TemperatureHighF,TemperatureAvgF,TemperatureLowF,DewpointHighF,DewpointAvgF,DewpointLowF,HumidityHigh,HumidityAvg,HumidityLow,PressureMaxIn,PressureMinIn,WindSpeedMaxMPH,WindSpeedAvgMPH,GustSpeedMaxMPH,PrecipitationSumIn
2013-4-1,41.0,32.2,26.1,28.9,12.8,1.4,72,46,23,30.06,29.67,16,4,16,0.00
2013-4-2,41.9,30.7,20.5,15.8,9.1,1.9,71,43,22,30.20,30.04,12,3,12,0.00
2013-4-3,43.0,30.8,19.8,14.9,8.8,1.2,70,43,20,30.37,30.19,11,2,11,0.00
2013-4-4,58.1,38.6,20.7,23.9,13.5,7.9,70,40,17,30.30,29.91,11,2,11,0.00
2013-4-5,48.2,39.8,29.5,29.3,18.0,7.9,72,45,22,30.16,29.90,13,3,13,0.00
2013-4-6,53.1,40.2,25.7,27.0,19.9,10.9,75,46,24,30.19,29.73,14,4,14,0.00
2013-4-7,57.4,49.4,33.1,44.6,34.3,10.9,73,57,33,29.99,29.57,15,4,15,0.00
2013-4-8,66.2,43.6,28.2,54.9,36.8,10.9,89,78,52,30.00,29.66,15,3,15,0.17
2013-4-9,53.8,46.9,42.1,45.0,41.8,10.9,90,83,70,30.04,29.84,8,2,8,0.02
2013-4-10,46.0,42.0,38.7,43.0,39.3,10.9,92,90,88,29.99,29.81,11,3,11,0.28
2013-4-11,38.8,37.7,32.0,36.7,34.9,10.9,92,89,41,29.95,29.60,17,4,17,0.60
2013-4-12,42.1,38.6,34.9,39.4,34.0,10.9,92,83,70,29.73,29.50,8,2,8,0.28
2013-4-13,43.0,38.6,36.0,37.0,29.4,10.9,87,70,54,29.95,29.73,15,4,15,0.01
2013-4-14,49.5,38.4,28.8,37.4,30.6,23.9,85,74,59,30.08,29.88,8,2,8,0.05
2013-4-15,68.7,54.7,37.9,53.6,44.0,32.5,89,68,52,29.92,29.84,13,3,13,0.04
2013-4-16,60.8,52.9,42.4,54.1,41.0,10.9,90,67,34,30.19,29.84,13,2,13,0.01
2013-4-17,61.5,48.2,39.7,42.4,34.5,10.9,89,61,34,30.29,29.97,11,3,11,0.71
2013-4-18,77.5,58.5,43.7,63.5,53.6,10.9,93,85,61,30.00,29.53,26,4,26,0.44
2013-4-19,58.8,44.9,35.2,57.0,38.4,10.9,94,78,61,29.73,29.31,21,5,21,0.45
2013-4-20,39.9,34.1,27.3,30.6,20.3,10.9,84,58,41,30.39,29.72,14,2,14,0.00
2013-4-21,51.1,36.9,21.4,29.1,21.9,10.9,86,57,32,30.56,30.39,11,2,11,0.00
2013-4-22,63.5,47.7,29.1,35.1,26.3,10.9,85,48,19,30.42,30.15,9,2,9,0.00
2013-4-23,70.2,53.0,33.8,53.2,41.0,10.9,92,67,38,30.16,29.78,14,3,14,0.34
2013-4-24,54.1,39.7,34.3,52.2,35.8,10.9,95,86,64,30.09,29.74,11,3,11,0.25
2013-4-25,51.6,39.6,28.4,39.9,30.4,10.9,89,71,43,30.84,30.05,13,2,13,0.07
2013-4-26,60.4,44.8,26.6,38.5,30.4,10.9,92,61,35,30.41,30.28,12,2,12,0.00
2013-4-27,70.7,52.5,32.2,44.8,34.9,10.9,93,58,20,30.32,30.08,9,2,9,0.00
2013-4-28,58.1,51.8,43.7,53.2,47.8,10.9,98,87,65,30.08,29.81,8,1,8,0.40
2013-4-29,71.1,60.4,52.7,58.6,54.0,10.9,99,82,56,29.91,27.55,8,1,8,0.00
2013-4-30,74.5,61.6,52.5,59.9,55.4,10.9,98,81,57,30.05,29.90,16,2,16,0.11